Decoded Metar for KCMX (HANCOCK in MI, USA) (IATA:CMX) | Meteo·Mobile Aviation Weather
aviador You're here:

KCMX Decoded Metar

HANCOCK in MI, USA
Report Time2018-12-17 14:53:00
UTC Time2018-12-17 15:28:06
Flight Rules mvfr MVFR
Wind300° at 13 Gusting to 17 kt
W.Decomp.*RWY 31: 12.9 kt HW 1.8 kt LCW
RWY 25: 8.0 kt HW 10.2 kt RCW
W.Rank300° ranks 3
Current wind is above 300° avg. (10.7)
Visibility9999 m
Phenomena:N/A
Clouds:Overcast 016 Hf
Expected CloudBase > 1,600 ft AGL from Temp-Dew spread
Ceiling1,600 ft
Temp-5°C (ISA -18)
Dew Point-9°C (74% RH)
AAT-12.7°C
QNH1021 hPa
Density Alt-1,358 ft
Elevation1,070 ft
Report Wrong Elevation
Raw Report
KCMX 171453Z AUTO 30013G17KT 10SM OVC016 M05/M09 A3014 RMK AO2
SLP225 T10501094 52011=

Extra information for KCMX:More info

Metar Taf Metar & Taf Last 4 Metars F.Rules Stats Wind Profile Meteogram Temp Stats Airport Information Weather charts Add Link Nearby VenuesMetar ALERT Operation Metar Decoded Social comments

AIRNAV info for KCMX